Rock Island, TN

1:17 PM CDT on September 04, 2015 (GMT -0500)
Faulkner Springs | | Change Station
CLOSE
Current Station
Personal Weather Station
Location: McMinnville, TN
Elevation: 928 ft
Nearby Weather Stations

Elev 928 ft 35.72 °N, 85.75 °W | Updated 6 minutes ago

Clear
Clear
100.8 °F
Feels Like 106 °F
N
5.3
Wind Variable Wind from NNE

Today
High -- | Low -- °F
--% Chance of Precip.
Yesterday
High -- | Low -- °F
Precip. -- in
6:16 AM 7:06 PM
Waning Gibbous, 57% visible
Pressure 30.06 in
Visibility 5.0 miles
Clouds Scattered Clouds 5000 ft
Heat Index 106 °F
Dew Point 67 °F
Humidity 34%
Rainfall 0.00 in
Snow Depth Not available.
UV 8 out of 12
Pollen 9.70 out of 12
Air Quality Not available.
Flu Activity Not available.
METAR KSRB 041755Z AUTO 06006KT 5SM SCT050 33/21 A3006 RMK
Pressure 30.06 in
Visibility 5.0 miles
Clouds Scattered Clouds 5000 ft
Heat Index 106 °F
Dew Point 67 °F
Humidity 34%
Rainfall 0.00 in
Snow Depth Not available.
UV 8 out of 12
Pollen 9.70 out of 12
Air Quality Not available.
Flu Activity Not available.
METAR KSRB 041755Z AUTO 06006KT 5SM SCT050 33/21 A3006 RMK

10-Day Weather Forecast

×

Almanac

Astronomy

Sep. 04, 2015 Rise Set
Actual Time
Civil Twilight
Nautical Twilight
Astronomical Twilight
Moon
Length of Visible Light
Length of Day
Tomorrow will be .
, % of the Moon is Illuminated

Today's Extremes

State Highs State Lows

Community

WunderPhotos

Upload Photos

1,852,248 photos uploaded!

WunderBlogs® & News

Nearby

Air Quality

  Air Quality AQ Index Pollutant
Not available.

Snow Depth

Station Depth Elevation

Earthquake Activity

City Distance Mag. Time & Date
Minimum magnitude displayed is 2.5.

Coastal Water Temperatures

Place Temperature

Stations

Nearby Weather Stations

Station Location Temp. Windchill Dew Point Humidity Wind Precip. Elev Updated Type